createdAt,value
2022-07-28T00:00:39.928Z,1001.02
2022-07-28T00:01:39.969Z,1001.02
2022-07-28T00:02:39.914Z,1001.02
2022-07-28T00:03:39.864Z,1001.05
2022-07-28T00:04:39.855Z,1001.02
2022-07-28T00:05:39.873Z,1001.06
2022-07-28T00:06:39.830Z,1001.06
2022-07-28T00:07:39.849Z,1001.05
2022-07-28T00:08:39.813Z,1001.10
2022-07-28T00:09:39.806Z,1001.14
2022-07-28T00:10:39.808Z,1001.13
2022-07-28T00:11:54.370Z,1001.07
2022-07-28T00:12:40.802Z,1001.07
2022-07-28T00:13:39.756Z,1001.08
2022-07-28T00:14:39.753Z,1001.04
2022-07-28T00:15:39.731Z,1001.06
2022-07-28T00:16:39.889Z,1001.08
2022-07-28T00:17:39.711Z,1001.06
2022-07-28T00:18:39.706Z,1001.07
2022-07-28T00:19:39.689Z,1001.06
2022-07-28T00:20:39.679Z,1001.05
2022-07-28T00:21:39.688Z,1001.03
2022-07-28T00:22:39.686Z,1001.01
2022-07-28T00:23:39.914Z,1001.05
2022-07-28T00:24:39.626Z,1001.03
2022-07-28T00:25:39.615Z,1001.04
2022-07-28T00:26:39.612Z,1001.02
2022-07-28T00:27:39.603Z,1001.02
2022-07-28T00:28:39.612Z,1001.00
2022-07-28T00:29:49.346Z,1001.03
2022-07-28T00:30:40.570Z,1001.02
2022-07-28T00:31:39.592Z,1001.04
2022-07-28T00:32:39.543Z,1001.01
2022-07-28T00:33:39.560Z,1001.02
2022-07-28T00:34:39.526Z,1001.03
2022-07-28T00:35:39.513Z,1001.00
2022-07-28T00:36:40.491Z,1001.02
2022-07-28T00:37:39.956Z,1001.00
2022-07-28T00:38:40.846Z,1001.03
2022-07-28T00:39:39.485Z,1000.99
2022-07-28T00:40:39.448Z,1001.00
2022-07-28T00:41:39.440Z,1001.02
2022-07-28T00:42:39.428Z,1001.00
2022-07-28T00:43:39.444Z,1001.01
2022-07-28T00:44:39.406Z,1001.02
2022-07-28T00:45:39.399Z,1000.96
2022-07-28T00:46:39.480Z,1000.97
2022-07-28T00:47:39.405Z,1000.93
2022-07-28T00:48:39.417Z,1000.91
2022-07-28T00:49:39.356Z,1000.95
2022-07-28T00:50:39.341Z,1000.96
2022-07-28T00:51:39.327Z,1000.91
2022-07-28T00:52:39.438Z,1000.96
2022-07-28T00:53:39.304Z,1000.98
2022-07-28T00:54:39.316Z,1000.95
2022-07-28T00:56:06.384Z,1000.93
2022-07-28T00:56:40.290Z,1000.91
2022-07-28T00:57:39.349Z,1000.90
2022-07-28T00:58:39.254Z,1000.87
2022-07-28T00:59:39.237Z,1000.91
2022-07-28T01:00:39.251Z,1000.90
2022-07-28T01:01:39.461Z,1000.90
2022-07-28T01:02:39.395Z,1000.88
2022-07-28T01:03:39.202Z,1000.89
2022-07-28T01:04:39.186Z,1000.90
2022-07-28T01:05:44.048Z,1000.88
2022-07-28T01:06:40.162Z,1000.84
2022-07-28T01:07:39.157Z,1000.84
2022-07-28T01:08:39.153Z,1000.85
2022-07-28T01:09:39.121Z,1000.83
2022-07-28T01:10:39.166Z,1000.83
2022-07-28T01:11:42.528Z,1000.81
2022-07-28T01:12:39.130Z,1000.81
2022-07-28T01:13:39.093Z,1000.82
2022-07-28T01:14:39.105Z,1000.82
2022-07-28T01:15:39.127Z,1000.80
2022-07-28T01:16:39.060Z,1000.85
2022-07-28T01:17:39.045Z,1000.82
2022-07-28T01:18:39.040Z,1000.81
2022-07-28T01:19:39.022Z,1000.81
2022-07-28T01:20:39.032Z,1000.79
2022-07-28T01:21:38.993Z,1000.77
2022-07-28T01:22:38.978Z,1000.80
2022-07-28T01:23:38.996Z,1000.81
2022-07-28T01:24:38.959Z,1000.77
2022-07-28T01:25:38.974Z,1000.79
2022-07-28T01:26:38.938Z,1000.77
2022-07-28T01:27:38.952Z,1000.72
2022-07-28T01:28:38.921Z,1000.75
2022-07-28T01:29:38.903Z,1000.68
2022-07-28T01:30:38.910Z,1000.69
2022-07-28T01:31:39.017Z,1000.67
2022-07-28T01:32:38.870Z,1000.64
2022-07-28T01:33:38.859Z,1000.69
2022-07-28T01:34:38.881Z,1000.67
2022-07-28T01:35:38.839Z,1000.71
2022-07-28T01:36:38.862Z,1000.70
2022-07-28T01:37:38.819Z,1000.66
2022-07-28T01:38:38.819Z,1000.69
2022-07-28T01:39:38.798Z,1000.69
2022-07-28T01:40:38.804Z,1000.65
2022-07-28T01:41:38.769Z,1000.64
2022-07-28T01:42:38.767Z,1000.61
2022-07-28T01:43:38.742Z,1000.67
2022-07-28T01:44:38.741Z,1000.65
2022-07-28T01:45:38.878Z,1000.61
2022-07-28T01:46:38.810Z,1000.62
2022-07-28T01:47:38.706Z,1000.63
2022-07-28T01:48:38.872Z,1000.65
2022-07-28T01:49:38.682Z,1000.64
2022-07-28T01:50:38.706Z,1000.69
2022-07-28T01:51:38.693Z,1000.67
2022-07-28T01:52:38.647Z,1000.64
2022-07-28T01:53:38.638Z,1000.67
2022-07-28T01:54:38.652Z,1000.64
2022-07-28T01:55:38.651Z,1000.66
2022-07-28T01:56:38.599Z,1000.64
2022-07-28T01:57:38.617Z,1000.63
2022-07-28T01:58:38.582Z,1000.68
2022-07-28T01:59:38.573Z,1000.65
2022-07-28T02:00:38.564Z,1000.64
2022-07-28T02:01:38.600Z,1000.68
2022-07-28T02:02:38.544Z,1000.64
2022-07-28T02:03:38.526Z,1000.63
2022-07-28T02:04:38.588Z,1000.60
2022-07-28T02:05:38.504Z,1000.63
2022-07-28T02:06:38.519Z,1000.62
2022-07-28T02:07:38.499Z,1000.65
2022-07-28T02:08:38.529Z,1000.64
2022-07-28T02:09:38.468Z,1000.61
2022-07-28T02:10:38.454Z,1000.59
2022-07-28T02:11:38.479Z,1000.60
2022-07-28T02:12:38.424Z,1000.61
2022-07-28T02:13:38.420Z,1000.60
2022-07-28T02:14:38.407Z,1000.57
2022-07-28T02:15:38.446Z,1000.57
2022-07-28T02:16:38.454Z,1000.57
2022-07-28T02:17:38.375Z,1000.59
2022-07-28T02:18:38.358Z,1000.56
2022-07-28T02:19:38.351Z,1000.57
2022-07-28T02:20:38.335Z,1000.59
2022-07-28T02:21:38.350Z,1000.58
2022-07-28T02:22:38.318Z,1000.55
2022-07-28T02:23:38.304Z,1000.58
2022-07-28T02:24:38.328Z,1000.58
2022-07-28T02:25:38.278Z,1000.57
2022-07-28T02:26:38.286Z,1000.56
2022-07-28T02:27:38.260Z,1000.56
2022-07-28T02:28:38.250Z,1000.52
2022-07-28T02:29:50.611Z,1000.55
2022-07-28T02:30:39.292Z,1000.54
2022-07-28T02:31:38.374Z,1000.51
2022-07-28T02:32:38.240Z,1000.54
2022-07-28T02:33:59.454Z,1000.56
2022-07-28T02:34:39.194Z,1000.56
2022-07-28T02:35:38.208Z,1000.55
2022-07-28T02:36:38.165Z,1000.58
2022-07-28T02:37:38.176Z,1000.61
2022-07-28T02:38:38.177Z,1000.61
2022-07-28T02:39:38.127Z,1000.63
2022-07-28T02:40:38.119Z,1000.60
2022-07-28T02:41:38.102Z,1000.63
2022-07-28T02:42:38.121Z,1000.58
2022-07-28T02:43:50.333Z,1000.63
2022-07-28T02:44:39.083Z,1000.62
2022-07-28T02:45:38.071Z,1000.62
2022-07-28T02:46:38.100Z,1000.65
2022-07-28T02:47:38.037Z,1000.62
2022-07-28T02:48:38.128Z,1000.63
2022-07-28T02:49:38.015Z,1000.63
2022-07-28T02:50:38.015Z,1000.60
2022-07-28T02:51:37.994Z,1000.60
2022-07-28T02:52:37.995Z,1000.56
2022-07-28T02:53:38.176Z,1000.58
2022-07-28T02:54:37.967Z,1000.56
2022-07-28T02:55:37.946Z,1000.56
2022-07-28T02:56:37.939Z,1000.58
2022-07-28T02:57:37.955Z,1000.53
2022-07-28T02:58:37.938Z,1000.55
2022-07-28T02:59:37.910Z,1000.57
2022-07-28T03:00:37.910Z,1000.59
2022-07-28T03:01:37.933Z,1000.56
2022-07-28T03:02:37.870Z,1000.61
2022-07-28T03:03:41.373Z,1000.59
2022-07-28T03:04:38.933Z,1000.62
2022-07-28T03:05:37.902Z,1000.62
2022-07-28T03:06:37.825Z,1000.62
2022-07-28T03:07:46.508Z,1000.65
2022-07-28T03:08:38.820Z,1000.63
2022-07-28T03:09:37.816Z,1000.68
2022-07-28T03:10:37.783Z,1000.66
2022-07-28T03:11:37.787Z,1000.67
2022-07-28T03:12:37.759Z,1000.64
2022-07-28T03:13:37.791Z,1000.63
2022-07-28T03:14:37.757Z,1000.64
2022-07-28T03:15:37.740Z,1000.62
2022-07-28T03:16:37.765Z,1000.68
2022-07-28T03:17:37.706Z,1000.65
2022-07-28T03:18:37.693Z,1000.69
2022-07-28T03:19:37.746Z,1000.68
2022-07-28T03:20:37.677Z,1000.72
2022-07-28T03:21:37.663Z,1000.73
2022-07-28T03:22:37.661Z,1000.74
2022-07-28T03:23:37.653Z,1000.75
2022-07-28T03:24:37.666Z,1000.76
2022-07-28T03:25:37.612Z,1000.73
2022-07-28T03:26:37.604Z,1000.72
2022-07-28T03:27:37.589Z,1000.70
2022-07-28T03:28:37.593Z,1000.71
2022-07-28T03:29:37.603Z,1000.72
2022-07-28T03:30:37.618Z,1000.72
2022-07-28T03:31:37.577Z,1000.72
2022-07-28T03:32:37.553Z,1000.72
2022-07-28T03:33:37.537Z,1000.69
2022-07-28T03:34:37.521Z,1000.71
2022-07-28T03:35:37.514Z,1000.70
2022-07-28T03:36:37.495Z,1000.69
2022-07-28T03:37:37.507Z,1000.69
2022-07-28T03:38:37.482Z,1000.69
2022-07-28T03:39:37.463Z,1000.70
2022-07-28T03:40:37.459Z,1000.70
2022-07-28T03:41:37.434Z,1000.69
2022-07-28T03:42:37.460Z,1000.77
2022-07-28T03:43:37.425Z,1000.78
2022-07-28T03:44:37.406Z,1000.81
2022-07-28T03:45:37.511Z,1000.81
2022-07-28T03:46:37.470Z,1000.83
2022-07-28T03:47:37.370Z,1000.79
2022-07-28T03:48:37.399Z,1000.80
2022-07-28T03:49:37.351Z,1000.85
2022-07-28T03:50:37.365Z,1000.82
2022-07-28T03:51:37.355Z,1000.82
2022-07-28T03:52:37.323Z,1000.83
2022-07-28T03:53:37.304Z,1000.79
2022-07-28T03:54:37.295Z,1000.82
2022-07-28T03:55:37.336Z,1000.81
2022-07-28T03:56:37.279Z,1000.83
2022-07-28T03:57:37.271Z,1000.81
2022-07-28T03:58:37.253Z,1000.80
2022-07-28T03:59:37.235Z,1000.77
2022-07-28T04:00:37.226Z,1000.77
2022-07-28T04:01:37.373Z,1000.76
2022-07-28T04:02:37.360Z,1000.74
2022-07-28T04:03:43.880Z,1000.73
2022-07-28T04:04:38.196Z,1000.77
2022-07-28T04:05:37.179Z,1000.75
2022-07-28T04:06:37.191Z,1000.77
2022-07-28T04:07:37.188Z,1000.79
2022-07-28T04:08:37.159Z,1000.76
2022-07-28T04:09:37.131Z,1000.78
2022-07-28T04:10:37.117Z,1000.76
2022-07-28T04:11:37.116Z,1000.74
2022-07-28T04:12:37.199Z,1000.76
2022-07-28T04:13:37.423Z,1000.75
2022-07-28T04:14:37.073Z,1000.77
2022-07-28T04:15:37.055Z,1000.82
2022-07-28T04:16:37.213Z,1000.76
2022-07-28T04:17:37.047Z,1000.73
2022-07-28T04:18:37.059Z,1000.79
2022-07-28T04:19:37.012Z,1000.77
2022-07-28T04:20:37.005Z,1000.77
2022-07-28T04:21:37.000Z,1000.76
2022-07-28T04:22:37.242Z,1000.77
2022-07-28T04:23:37.218Z,1000.77
2022-07-28T04:24:36.963Z,1000.77
2022-07-28T04:25:36.947Z,1000.73
2022-07-28T04:26:36.952Z,1000.78
2022-07-28T04:27:36.961Z,1000.76
2022-07-28T04:28:36.922Z,1000.80
2022-07-28T04:29:36.901Z,1000.81
2022-07-28T04:30:43.786Z,1000.81
2022-07-28T04:31:38.078Z,1000.81
2022-07-28T04:32:36.881Z,1000.85
2022-07-28T04:33:36.888Z,1000.90
2022-07-28T04:34:36.860Z,1000.88
2022-07-28T04:35:36.841Z,1000.88
2022-07-28T04:36:36.849Z,1000.91
2022-07-28T04:37:36.825Z,1000.89
2022-07-28T04:38:36.835Z,1000.88
2022-07-28T04:39:36.946Z,1000.92
2022-07-28T04:40:36.786Z,1000.90
2022-07-28T04:41:36.777Z,1000.93
2022-07-28T04:42:36.789Z,1000.93
2022-07-28T04:43:36.754Z,1000.95
2022-07-28T04:44:36.772Z,1000.91
2022-07-28T04:45:36.766Z,1000.93
2022-07-28T04:46:36.784Z,1000.93
2022-07-28T04:47:36.709Z,1000.91
2022-07-28T04:48:36.746Z,1000.90
2022-07-28T04:49:36.713Z,1000.84
2022-07-28T04:50:36.677Z,1000.77
2022-07-28T04:51:36.657Z,1000.72
2022-07-28T04:52:36.660Z,1000.77
2022-07-28T04:53:36.636Z,1000.75
2022-07-28T04:54:36.623Z,1000.78
2022-07-28T04:55:36.634Z,1000.82
2022-07-28T04:56:36.630Z,1000.85
2022-07-28T04:57:36.641Z,1000.83
2022-07-28T04:58:36.600Z,1000.83
2022-07-28T04:59:36.572Z,1000.84
2022-07-28T05:00:36.599Z,1000.86
2022-07-28T05:01:36.596Z,1000.84
2022-07-28T05:02:36.538Z,1000.83
2022-07-28T05:03:36.671Z,1000.87
2022-07-28T05:04:36.601Z,1000.86
2022-07-28T05:05:36.499Z,1000.87
2022-07-28T05:06:36.493Z,1000.85
2022-07-28T05:07:36.485Z,1000.83
2022-07-28T05:08:36.472Z,1000.80
2022-07-28T05:09:36.487Z,1000.80
2022-07-28T05:10:36.475Z,1000.81
2022-07-28T05:11:36.445Z,1000.78
2022-07-28T05:12:36.431Z,1000.82
2022-07-28T05:13:36.410Z,1000.77
2022-07-28T05:14:36.449Z,1000.78
2022-07-28T05:15:36.391Z,1000.78
2022-07-28T05:16:36.471Z,1000.79
2022-07-28T05:17:36.369Z,1000.77
2022-07-28T05:18:36.374Z,1000.75
2022-07-28T05:19:36.374Z,1000.77
2022-07-28T05:20:36.343Z,1000.80
2022-07-28T05:21:36.355Z,1000.79
2022-07-28T05:22:36.316Z,1000.80
2022-07-28T05:23:36.306Z,1000.85
2022-07-28T05:24:36.292Z,1000.78
2022-07-28T05:25:36.279Z,1000.78
2022-07-28T05:26:36.294Z,1000.79
2022-07-28T05:27:36.263Z,1000.80
2022-07-28T05:28:36.251Z,1000.78
2022-07-28T05:29:47.010Z,1000.84
2022-07-28T05:30:37.228Z,1000.87
2022-07-28T05:31:36.334Z,1000.96
2022-07-28T05:32:36.205Z,1000.96
2022-07-28T05:33:36.193Z,1000.99
2022-07-28T05:34:36.184Z,1001.03
2022-07-28T05:35:36.170Z,1001.01
2022-07-28T05:36:36.179Z,1001.00
2022-07-28T05:37:36.154Z,1000.94
2022-07-28T05:38:36.133Z,1000.98
2022-07-28T05:39:36.127Z,1000.91
2022-07-28T05:40:36.141Z,1000.92
2022-07-28T05:41:36.104Z,1000.93
2022-07-28T05:42:36.098Z,1000.94
2022-07-28T05:43:36.102Z,1000.95
2022-07-28T05:44:38.427Z,1000.98
2022-07-28T05:45:36.127Z,1000.99
2022-07-28T05:46:36.047Z,1001.05
2022-07-28T05:47:36.033Z,1001.01
2022-07-28T05:48:36.155Z,1001.02
2022-07-28T05:49:36.013Z,1000.95
2022-07-28T05:50:36.003Z,1001.02
2022-07-28T05:51:41.538Z,1000.99
2022-07-28T05:52:36.982Z,1000.91
2022-07-28T05:53:35.976Z,1000.91
2022-07-28T05:54:35.974Z,1000.92
2022-07-28T05:55:35.944Z,1000.92
2022-07-28T05:56:36.961Z,1000.94
2022-07-28T05:57:35.922Z,1000.94
2022-07-28T05:58:35.935Z,1000.91
2022-07-28T05:59:35.905Z,1000.92
2022-07-28T06:00:35.887Z,1000.94
2022-07-28T06:01:35.935Z,1000.91
2022-07-28T06:02:35.989Z,1000.93
2022-07-28T06:03:41.501Z,1000.90
2022-07-28T06:04:37.222Z,1000.95
2022-07-28T06:05:35.840Z,1000.96
2022-07-28T06:06:36.838Z,1000.90
2022-07-28T06:07:43.021Z,1000.87
2022-07-28T06:08:36.854Z,1000.87
2022-07-28T06:09:35.787Z,1000.88
2022-07-28T06:10:35.780Z,1000.88
2022-07-28T06:11:35.764Z,1000.84
2022-07-28T06:12:35.755Z,1000.86
2022-07-28T06:13:35.771Z,1000.81
2022-07-28T06:14:35.735Z,1000.78
2022-07-28T06:15:35.720Z,1000.80
2022-07-28T06:16:35.803Z,1000.80
2022-07-28T06:17:35.732Z,1000.85
2022-07-28T06:18:35.689Z,1000.83
2022-07-28T06:19:35.676Z,1000.86
2022-07-28T06:20:35.666Z,1000.83
2022-07-28T06:21:35.661Z,1000.85
2022-07-28T06:22:35.650Z,1000.87
2022-07-28T06:23:35.691Z,1000.84
2022-07-28T06:24:35.625Z,1000.86
2022-07-28T06:25:35.610Z,1000.83
2022-07-28T06:26:36.347Z,1000.84
2022-07-28T06:27:35.594Z,1000.82
2022-07-28T06:28:35.602Z,1000.85
2022-07-28T06:29:35.565Z,1000.83
2022-07-28T06:30:35.587Z,1000.84
2022-07-28T06:31:35.607Z,1000.85
2022-07-28T06:32:35.537Z,1000.89
2022-07-28T06:33:35.525Z,1000.88
2022-07-28T06:34:35.506Z,1000.86
2022-07-28T06:35:43.137Z,1000.82
2022-07-28T06:36:36.514Z,1000.82
2022-07-28T06:37:35.582Z,1000.84
2022-07-28T06:38:35.501Z,1000.74
2022-07-28T06:39:35.455Z,1000.79
2022-07-28T06:40:35.662Z,1000.77
2022-07-28T06:41:35.435Z,1000.78
2022-07-28T06:42:35.421Z,1000.81
2022-07-28T06:43:38.760Z,1000.80
2022-07-28T06:44:57.411Z,1000.74
2022-07-28T06:45:36.388Z,1000.74
2022-07-28T06:46:35.430Z,1000.74
2022-07-28T06:47:35.394Z,1000.70
2022-07-28T06:48:35.370Z,1000.77
2022-07-28T06:49:35.350Z,1000.75
2022-07-28T06:50:35.331Z,1000.72
2022-07-28T06:51:38.322Z,1000.73
2022-07-28T06:52:35.312Z,1000.70
2022-07-28T06:53:35.299Z,1000.66
2022-07-28T06:54:35.289Z,1000.59
2022-07-28T06:55:36.004Z,1000.58
2022-07-28T06:56:35.289Z,1000.59
2022-07-28T06:57:35.255Z,1000.62
2022-07-28T06:58:35.245Z,1000.71
2022-07-28T06:59:35.231Z,1000.61
2022-07-28T07:00:35.361Z,1000.67
2022-07-28T07:01:35.362Z,1000.64
2022-07-28T07:02:35.195Z,1000.63
2022-07-28T07:03:35.192Z,1000.64
2022-07-28T07:04:35.228Z,1000.61
2022-07-28T07:05:35.195Z,1000.67
2022-07-28T07:06:35.155Z,1000.66
2022-07-28T07:07:38.483Z,1000.64
2022-07-28T07:08:36.162Z,1000.67
2022-07-28T07:09:35.125Z,1000.68
2022-07-28T07:10:35.110Z,1000.60
2022-07-28T07:11:35.097Z,1000.65
2022-07-28T07:12:35.087Z,1000.67
2022-07-28T07:13:35.104Z,1000.63
2022-07-28T07:14:35.071Z,1000.63
2022-07-28T07:15:35.230Z,1000.62
2022-07-28T07:16:35.156Z,1000.64
2022-07-28T07:17:35.040Z,1000.56
2022-07-28T07:18:35.029Z,1000.55
2022-07-28T07:19:35.015Z,1000.58
2022-07-28T07:20:35.031Z,1000.55
2022-07-28T07:21:34.995Z,1000.63
2022-07-28T07:22:35.487Z,1000.62
2022-07-28T07:23:34.974Z,1000.58
2022-07-28T07:24:34.961Z,1000.59
2022-07-28T07:25:34.943Z,1000.59
2022-07-28T07:26:34.987Z,1000.60
2022-07-28T07:27:34.929Z,1000.59
2022-07-28T07:28:34.932Z,1000.62
2022-07-28T07:29:35.001Z,1000.61
2022-07-28T07:30:34.986Z,1000.65
2022-07-28T07:31:35.032Z,1000.61
2022-07-28T07:32:34.974Z,1000.58
2022-07-28T07:33:34.934Z,1000.58
2022-07-28T07:34:34.849Z,1000.56
2022-07-28T07:35:34.868Z,1000.52
2022-07-28T07:36:34.845Z,1000.53
2022-07-28T07:37:34.887Z,1000.53
2022-07-28T07:38:34.899Z,1000.54
2022-07-28T07:39:34.883Z,1000.53
2022-07-28T07:40:35.056Z,1000.57
2022-07-28T07:41:34.773Z,1000.54
2022-07-28T07:42:34.802Z,1000.58
2022-07-28T07:43:34.873Z,1000.55
2022-07-28T07:44:34.839Z,1000.57
2022-07-28T07:45:35.056Z,1000.51
2022-07-28T07:46:34.835Z,1000.54
2022-07-28T07:47:34.721Z,1000.51
2022-07-28T07:48:34.807Z,1000.57
2022-07-28T07:49:45.653Z,1000.47
2022-07-28T07:50:35.706Z,1000.49
2022-07-28T07:51:34.737Z,1000.53
2022-07-28T07:52:34.677Z,1000.52
2022-07-28T07:53:34.644Z,1000.53
2022-07-28T07:54:34.630Z,1000.54
2022-07-28T07:55:37.632Z,1000.53
2022-07-28T07:56:34.641Z,1000.45
2022-07-28T07:57:34.598Z,1000.54
2022-07-28T07:58:34.585Z,1000.47
2022-07-28T07:59:34.575Z,1000.50
2022-07-28T08:00:34.681Z,1000.53
2022-07-28T08:01:34.632Z,1000.46
2022-07-28T08:02:34.536Z,1000.46
2022-07-28T08:03:34.556Z,1000.40
2022-07-28T08:04:37.214Z,1000.42
2022-07-28T08:05:35.442Z,1000.42
2022-07-28T08:06:34.497Z,1000.44
2022-07-28T08:07:34.480Z,1000.46
2022-07-28T08:08:41.672Z,1000.38
2022-07-28T08:09:35.468Z,1000.37
2022-07-28T08:10:34.457Z,1000.35
2022-07-28T08:11:34.443Z,1000.36
2022-07-28T08:12:34.433Z,1000.35
2022-07-28T08:13:34.504Z,1000.32
2022-07-28T08:14:34.410Z,1000.33
2022-07-28T08:15:34.409Z,1000.30
2022-07-28T08:16:34.513Z,1000.33
2022-07-28T08:17:34.376Z,1000.35
2022-07-28T08:18:34.389Z,1000.31
2022-07-28T08:19:34.350Z,1000.33
2022-07-28T08:20:34.350Z,1000.33
2022-07-28T08:21:34.332Z,1000.35
2022-07-28T08:22:34.328Z,1000.34
2022-07-28T08:23:34.332Z,1000.29
2022-07-28T08:24:34.616Z,1000.30
2022-07-28T08:25:34.290Z,1000.23
2022-07-28T08:26:34.386Z,1000.27
2022-07-28T08:27:34.267Z,1000.31
2022-07-28T08:28:34.292Z,1000.26
2022-07-28T08:29:34.245Z,1000.21
2022-07-28T08:30:34.235Z,1000.22
2022-07-28T08:31:35.484Z,1000.20
2022-07-28T08:32:34.210Z,1000.18
2022-07-28T08:33:34.203Z,1000.18
2022-07-28T08:34:35.397Z,1000.19
2022-07-28T08:35:35.532Z,1000.18
2022-07-28T08:36:34.166Z,1000.17
2022-07-28T08:37:34.165Z,1000.18
2022-07-28T08:38:34.171Z,1000.16
2022-07-28T08:39:34.154Z,1000.19
2022-07-28T08:40:34.128Z,1000.20
2022-07-28T08:41:34.117Z,1000.16
2022-07-28T08:42:34.127Z,1000.25
2022-07-28T08:43:34.097Z,1000.17
2022-07-28T08:44:34.081Z,1000.18
2022-07-28T08:45:37.029Z,1000.21
2022-07-28T08:46:34.112Z,1000.14
2022-07-28T08:47:58.714Z,1000.12
2022-07-28T08:48:35.107Z,1000.09
2022-07-28T08:49:34.030Z,1000.08
2022-07-28T08:50:35.217Z,1000.12
2022-07-28T08:51:34.006Z,1000.13
2022-07-28T08:52:34.002Z,1000.12
2022-07-28T08:53:34.006Z,1000.10
2022-07-28T08:54:33.981Z,1000.15
2022-07-28T08:55:33.961Z,1000.12
2022-07-28T08:56:33.972Z,1000.09
2022-07-28T08:57:33.939Z,1000.09
2022-07-28T08:58:33.955Z,1000.08
2022-07-28T08:59:33.926Z,1000.05
2022-07-28T09:00:33.915Z,1000.10
2022-07-28T09:01:38.863Z,1000.11
2022-07-28T09:02:35.085Z,1000.10
2022-07-28T09:03:34.019Z,1000.11
2022-07-28T09:04:33.898Z,1000.10
2022-07-28T09:05:33.858Z,1000.05
2022-07-28T09:06:33.842Z,1000.06
2022-07-28T09:07:33.855Z,1000.03
2022-07-28T09:08:33.851Z,999.99
2022-07-28T09:09:33.832Z,999.98
2022-07-28T09:10:33.796Z,999.99
2022-07-28T09:11:33.816Z,999.97
2022-07-28T09:12:33.783Z,999.93
2022-07-28T09:13:33.775Z,999.90
2022-07-28T09:14:33.764Z,999.92
2022-07-28T09:15:33.822Z,999.95
2022-07-28T09:16:33.745Z,999.93
2022-07-28T09:17:33.760Z,999.97
2022-07-28T09:18:33.735Z,999.95
2022-07-28T09:19:34.031Z,999.99
2022-07-28T09:20:33.695Z,999.97
2022-07-28T09:21:33.684Z,999.96
2022-07-28T09:22:33.701Z,999.93
2022-07-28T09:23:44.046Z,999.97
2022-07-28T09:24:34.657Z,999.93
2022-07-28T09:25:33.646Z,999.90
2022-07-28T09:26:33.633Z,999.91
2022-07-28T09:27:33.615Z,999.88
2022-07-28T09:28:33.631Z,999.84
2022-07-28T09:29:33.598Z,999.88
2022-07-28T09:30:33.587Z,999.89
2022-07-28T09:31:33.670Z,999.87
2022-07-28T09:32:33.605Z,999.91
2022-07-28T09:33:42.315Z,999.90
2022-07-28T09:34:34.542Z,999.91
2022-07-28T09:35:33.529Z,999.87
2022-07-28T09:36:33.547Z,999.85
2022-07-28T09:37:33.581Z,999.84
2022-07-28T09:38:33.524Z,999.85
2022-07-28T09:39:33.492Z,999.87
2022-07-28T09:40:33.489Z,999.87
2022-07-28T09:41:33.467Z,999.87
2022-07-28T09:42:33.455Z,999.92
2022-07-28T09:43:33.500Z,999.95
2022-07-28T09:44:33.438Z,999.90
2022-07-28T09:45:33.452Z,999.89
2022-07-28T09:46:33.575Z,999.87
2022-07-28T09:47:33.797Z,999.81
2022-07-28T09:48:33.861Z,999.84
2022-07-28T09:49:33.537Z,999.90
2022-07-28T09:50:33.396Z,999.85
2022-07-28T09:51:33.366Z,999.82
2022-07-28T09:52:33.351Z,999.88
2022-07-28T09:53:33.337Z,999.86
2022-07-28T09:54:37.341Z,999.72
2022-07-28T09:55:34.334Z,999.81
2022-07-28T09:56:33.330Z,999.83
2022-07-28T09:57:33.309Z,999.79
2022-07-28T09:58:33.286Z,999.87
2022-07-28T09:59:33.273Z,999.82
2022-07-28T10:00:33.265Z,999.85
2022-07-28T10:01:36.607Z,999.81
2022-07-28T10:02:33.300Z,999.85
2022-07-28T10:03:33.234Z,999.83
2022-07-28T10:04:33.221Z,999.82
2022-07-28T10:05:33.229Z,999.76
2022-07-28T10:06:33.221Z,999.77
2022-07-28T10:07:33.212Z,999.70
2022-07-28T10:08:33.173Z,999.70
2022-07-28T10:09:33.210Z,999.72
2022-07-28T10:10:33.158Z,999.72
2022-07-28T10:11:37.714Z,999.68
2022-07-28T10:12:34.136Z,999.79
2022-07-28T10:13:33.151Z,999.75
2022-07-28T10:14:33.182Z,999.72
2022-07-28T10:15:33.156Z,999.73
2022-07-28T10:16:33.254Z,999.71
2022-07-28T10:17:33.078Z,999.69
2022-07-28T10:18:33.097Z,999.66
2022-07-28T10:19:33.059Z,999.65
2022-07-28T10:20:33.046Z,999.63
2022-07-28T10:21:33.040Z,999.62
2022-07-28T10:22:33.106Z,999.68
2022-07-28T10:23:33.036Z,999.67
2022-07-28T10:24:33.008Z,999.62
2022-07-28T10:25:32.996Z,999.61
2022-07-28T10:26:32.980Z,999.59
2022-07-28T10:27:32.973Z,999.56
2022-07-28T10:28:32.990Z,999.52
2022-07-28T10:29:32.955Z,999.51
2022-07-28T10:30:33.020Z,999.52
2022-07-28T10:31:32.932Z,999.50
2022-07-28T10:32:32.926Z,999.45
2022-07-28T10:33:32.941Z,999.45
2022-07-28T10:34:32.920Z,999.42
2022-07-28T10:35:32.890Z,999.36
2022-07-28T10:36:33.878Z,999.40
2022-07-28T10:37:32.868Z,999.39
2022-07-28T10:38:32.880Z,999.44
2022-07-28T10:39:32.874Z,999.41
2022-07-28T10:40:32.838Z,999.42
2022-07-28T10:41:32.826Z,999.37
2022-07-28T10:42:32.836Z,999.34
2022-07-28T10:43:32.808Z,999.42
2022-07-28T10:44:32.795Z,999.40
2022-07-28T10:45:55.298Z,999.33
2022-07-28T10:46:33.823Z,999.28
2022-07-28T10:47:36.433Z,999.28
2022-07-28T10:48:32.926Z,999.28
2022-07-28T10:49:33.222Z,999.30
2022-07-28T10:50:32.748Z,999.32
2022-07-28T10:51:32.762Z,999.40
2022-07-28T10:52:49.913Z,999.32
2022-07-28T10:53:33.714Z,999.31
2022-07-28T10:54:32.685Z,999.30
2022-07-28T10:55:32.679Z,999.29
2022-07-28T10:56:32.688Z,999.31
2022-07-28T10:57:32.650Z,999.34
2022-07-28T10:58:32.641Z,999.29
2022-07-28T10:59:32.640Z,999.23
2022-07-28T11:00:52.847Z,999.21
2022-07-28T11:01:48.415Z,999.21
2022-07-28T11:02:33.715Z,999.18
2022-07-28T11:03:32.714Z,999.21
2022-07-28T11:04:32.578Z,999.22
2022-07-28T11:05:32.579Z,999.19
2022-07-28T11:06:32.595Z,999.25
2022-07-28T11:07:32.563Z,999.21
2022-07-28T11:08:32.539Z,999.11
2022-07-28T11:09:32.525Z,999.18
2022-07-28T11:10:32.525Z,999.14
2022-07-28T11:11:32.508Z,999.18
2022-07-28T11:12:32.516Z,999.12
2022-07-28T11:13:32.775Z,999.08
2022-07-28T11:14:32.490Z,999.12
2022-07-28T11:15:32.711Z,999.11
2022-07-28T11:16:36.683Z,999.08
2022-07-28T11:17:33.125Z,999.07
2022-07-28T11:18:32.463Z,999.12
2022-07-28T11:19:40.407Z,999.09
2022-07-28T11:20:33.405Z,999.00
2022-07-28T11:21:39.795Z,999.11
2022-07-28T11:22:34.351Z,999.10
2022-07-28T11:23:32.375Z,999.08
2022-07-28T11:24:32.360Z,999.06
2022-07-28T11:25:32.356Z,999.03
2022-07-28T11:26:32.377Z,999.04
2022-07-28T11:27:32.334Z,999.09
2022-07-28T11:28:32.319Z,999.10
2022-07-28T11:29:32.316Z,999.11
2022-07-28T11:30:32.387Z,999.03
2022-07-28T11:31:32.290Z,999.07
2022-07-28T11:32:42.251Z,999.04
2022-07-28T11:33:33.270Z,999.08
2022-07-28T11:34:32.291Z,999.07
2022-07-28T11:35:32.265Z,999.03
2022-07-28T11:36:32.247Z,999.05
2022-07-28T11:37:32.233Z,999.05
2022-07-28T11:38:32.221Z,999.01
2022-07-28T11:39:43.505Z,998.96
2022-07-28T11:40:33.230Z,998.95
2022-07-28T11:41:32.190Z,998.97
2022-07-28T11:42:32.176Z,998.97
2022-07-28T11:43:36.046Z,998.96
2022-07-28T11:44:33.181Z,999.01
2022-07-28T11:45:37.734Z,999.03
2022-07-28T11:46:33.213Z,998.89
2022-07-28T11:47:32.124Z,998.91
2022-07-28T11:48:32.113Z,998.91
2022-07-28T11:49:32.210Z,998.89
2022-07-28T11:50:32.093Z,998.90
2022-07-28T11:51:33.481Z,998.81
2022-07-28T11:52:33.068Z,998.87
2022-07-28T11:53:32.056Z,998.88
2022-07-28T11:54:32.053Z,998.82
2022-07-28T11:55:49.881Z,998.77
2022-07-28T11:56:33.025Z,998.76
2022-07-28T11:57:32.025Z,998.76
2022-07-28T11:58:32.032Z,998.76
2022-07-28T11:59:37.191Z,998.78
2022-07-28T12:00:32.979Z,998.77
2022-07-28T12:01:32.439Z,998.76
2022-07-28T12:02:33.016Z,998.75
2022-07-28T12:03:38.562Z,998.77
2022-07-28T12:04:32.999Z,998.75
2022-07-28T12:05:34.519Z,998.73
2022-07-28T12:06:32.922Z,998.70
2022-07-28T12:07:31.909Z,998.73
2022-07-28T12:08:31.925Z,998.71
2022-07-28T12:09:41.291Z,998.74
2022-07-28T12:10:56.972Z,998.74
2022-07-28T12:11:32.870Z,998.74